Vingaren — OZ2131 — position and weather

sailwx.info

Track history (hours):
 
Tides and Currents Weather Stations Pressure Air Temp Water Temp Dewpoint Dewpoint Depression Visibility Wind Speed Wind Dir Waves Ship Positions

Vingaren

Last reported at 2015-May-23 15:33 UTC. Time now 2015-May-23 16:29 UTC.
Position N 55°38' E 013°01'.

Length 89 m; draft 3.9 m.

Type: Cargo ship. MMSI: 231844000.

Date/timePositionNaut miles runAvg speedWind from/ knotsBaromVisibWave heightAir tempDewpointWater temp
2015-May-23 15:33N 55°38' E 013°01'0 0.0
2015-May-23 14:33N 55°38' E 013°01'0 0.0
2015-May-23 13:33N 55°38' E 013°01'0 0.0
2015-May-23 12:33N 55°38' E 013°01'0 0.0
2015-May-23 11:33N 55°38' E 013°01'0 0.0
2015-May-23 10:29N 55°38' E 013°01'0 0.0
2015-May-23 09:32N 55°38' E 013°01'0 0.0
2015-May-23 08:26N 55°38' E 013°01'0 0.0
2015-May-23 07:32N 55°38' E 013°01'0 0.0
2015-May-23 06:32N 55°38' E 013°01'0 0.0
2015-May-23 05:32N 55°38' E 013°01'0 0.0
2015-May-23 04:32N 55°38' E 013°01'0 0.0
2015-May-23 03:32N 55°38' E 013°01'0 0.0
2015-May-23 02:32N 55°38' E 013°01'0 0.0
2015-May-23 01:32N 55°38' E 013°01'0 0.0
2015-May-23 00:32N 55°38' E 013°01'0 0.0
2015-May-22 23:32N 55°38' E 013°01'0 0.0
2015-May-22 22:32N 55°38' E 013°01'0 0.0
2015-May-22 21:32N 55°38' E 013°01'0 0.0
2015-May-22 20:32N 55°38' E 013°01'0 0.0
2015-May-22 19:32N 55°38' E 013°01'0 0.0
2015-May-22 18:32N 55°38' E 013°01'0 0.0
2015-May-22 17:32N 55°38' E 013°01'0 0.0
2015-May-22 16:32N 55°38' E 013°01'0 0.0
2015-May-22 15:32N 55°38' E 013°01'0 0.0
2015-May-22 14:32N 55°38' E 013°01'0 0.0
2015-May-22 13:32N 55°38' E 013°01'0 0.0
2015-May-22 12:32N 55°38' E 013°01'0 0.0
2015-May-22 11:32N 55°38' E 013°01'0 0.0
2015-May-22 10:32N 55°38' E 013°01'0 0.0
2015-May-22 09:32N 55°38' E 013°01'0 0.0
2015-May-22 08:32N 55°38' E 013°01'0 0.0
2015-May-22 07:32N 55°38' E 013°01'0 0.0
2015-May-22 06:32N 55°38' E 013°01'1 0.6
2015-May-22 05:33N 55°39' E 013°00'4 3.6
2015-May-22 04:31N 55°42' E 012°56'0 0.0
2015-May-22 03:31N 55°42' E 012°56'0 0.0
2015-May-22 02:31N 55°42' E 012°56'0 0.0
2015-May-22 01:31N 55°42' E 012°56'0 0.0
2015-May-22 00:31N 55°42' E 012°56'0 0.0
2015-May-21 23:31N 55°42' E 012°56'0 0.0
2015-May-21 22:31N 55°42' E 012°56'0 0.0
2015-May-21 21:31N 55°42' E 012°56'0 0.0
2015-May-21 20:31N 55°42' E 012°56'0 0.0
2015-May-21 19:31N 55°42' E 012°56'0 0.0
2015-May-21 18:31N 55°42' E 012°56'0 0.0
2015-May-21 17:31N 55°42' E 012°56'5 5.3
2015-May-21 16:33N 55°45' E 012°50'10 9.6
2015-May-21 15:33N 55°54' E 012°44'6 5.8
2015-May-21 14:30N 56°00' E 012°43'0 0.0
2015-May-21 13:33N 56°00' E 012°43'0 0.0
2015-May-21 12:33N 56°00' E 012°43'0 0.0
2015-May-21 11:33N 56°00' E 012°43'0 0.0
2015-May-21 10:33N 56°00' E 012°43'0 0.0
2015-May-21 09:33N 56°00' E 012°43'0 0.0
2015-May-21 08:33N 56°00' E 012°43'0 0.0
2015-May-21 07:30N 56°00' E 012°43'0 0.0
2015-May-21 06:33N 56°00' E 012°43'0 0.0
2015-May-21 05:33N 56°00' E 012°43'0 0.0
2015-May-21 04:33N 56°00' E 012°43'0 0.0
2015-May-21 03:33N 56°00' E 012°43'0 0.0
2015-May-21 02:33N 56°00' E 012°43'0 0.0
2015-May-21 01:33N 56°00' E 012°43'0 0.0
2015-May-21 00:33N 56°00' E 012°43'0 0.0
2015-May-20 23:33N 56°00' E 012°43'0 0.0
2015-May-20 22:33N 56°00' E 012°43'0 0.0
2015-May-20 21:33N 56°00' E 012°43'0 0.0
2015-May-20 20:33N 56°00' E 012°43'0 0.0
2015-May-20 19:32N 56°00' E 012°43'0 0.0
2015-May-20 18:32N 56°00' E 012°43'0 0.0
2015-May-20 17:32N 56°00' E 012°43'0 0.0
2015-May-20 16:32N 56°00' E 012°43'0 0.0
2015-May-20 15:29N 56°00' E 012°43'0 0.0
2015-May-20 14:32N 56°00' E 012°43'0 0.0
2015-May-20 13:32N 56°00' E 012°43'0 0.0
2015-May-20 12:32N 56°00' E 012°43'0 0.0
2015-May-20 11:29N 56°00' E 012°43'0 0.0
2015-May-20 10:32N 56°00' E 012°43'0 0.0
2015-May-20 09:32N 56°00' E 012°43'0 0.0
2015-May-20 08:32N 56°00' E 012°43'0 0.0
2015-May-20 07:29N 56°01' E 012°43'0 0.0
2015-May-20 06:32N 56°01' E 012°43'0 0.0
2015-May-20 05:32N 56°01' E 012°43'0 0.0
2015-May-20 04:32N 56°01' E 012°43'0 0.0
2015-May-20 03:32N 56°01' E 012°43'0 0.0
2015-May-20 02:32N 56°01' E 012°43'0 0.0
2015-May-20 01:29N 56°01' E 012°43'0 0.0
2015-May-20 00:32N 56°01' E 012°43'0 0.0
2015-May-19 23:32N 56°01' E 012°43'0 0.0
2015-May-19 22:32N 56°01' E 012°43'0 0.0
2015-May-19 21:32N 56°00' E 012°43'0 0.1
2015-May-19 20:32N 56°00' E 012°43'0 0.0
2015-May-19 19:32N 56°00' E 012°43'0 0.0
2015-May-19 18:32N 56°00' E 012°43'0 0.0
2015-May-19 17:32N 56°00' E 012°43'0 0.0
2015-May-19 16:32N 56°00' E 012°43'0 0.0
2015-May-19 15:32N 56°00' E 012°43'0 0.0
2015-May-19 14:32N 56°00' E 012°43'0 0.0
2015-May-19 13:32N 56°00' E 012°43'0 0.0
2015-May-19 12:32N 56°00' E 012°43'0 0.1
2015-May-19 11:32N 56°00' E 012°43'0 0.0
2015-May-19 10:31N 56°01' E 012°43'0 0.0
2015-May-19 09:31N 56°00' E 012°43'0 0.0
2015-May-19 08:31N 56°00' E 012°43'0 0.0
2015-May-19 07:31N 56°00' E 012°43'0 0.0
2015-May-19 06:31N 56°00' E 012°43'0 0.0
2015-May-19 05:31N 56°00' E 012°43'0 0.0
2015-May-19 04:31N 56°00' E 012°43'0 0.0
2015-May-19 03:31N 56°00' E 012°43'0 0.0
2015-May-19 02:28N 56°00' E 012°43'0 0.0
2015-May-19 01:31N 56°00' E 012°43'0 0.0
2015-May-19 00:31N 56°00' E 012°43'0 0.0
2015-May-18 23:25N 56°00' E 012°43'0 0.0
2015-May-18 22:31N 56°00' E 012°43'0 0.0
2015-May-18 21:28N 56°00' E 012°43'0 0.0
2015-May-18 20:31N 56°00' E 012°43'0 0.0
2015-May-18 19:31N 56°00' E 012°43'0 0.0
2015-May-18 18:28N 56°00' E 012°43'0 0.0
2015-May-18 17:31N 56°00' E 012°43'0 0.0
2015-May-18 16:28N 56°00' E 012°43'0 0.0
2015-May-18 15:31N 56°00' E 012°43'0 0.0
2015-May-18 14:25N 56°00' E 012°43'0 0.0
2015-May-18 13:28N 56°00' E 012°43'0 0.0
2015-May-18 12:31N 56°00' E 012°43'0 0.0
2015-May-18 11:31N 56°00' E 012°43'0 0.0
2015-May-18 10:25N 56°00' E 012°43'0 0.0
2015-May-18 09:31N 56°00' E 012°43'0 0.0
2015-May-18 08:31N 56°00' E 012°43'0 0.0
2015-May-18 07:31N 56°01' E 012°43'0 0.0
2015-May-18 06:31N 56°01' E 012°43'0 0.0
2015-May-18 05:31N 56°01' E 012°43'0 0.0
2015-May-18 04:31N 56°01' E 012°43'0 0.0
2015-May-18 03:31N 56°01' E 012°43'0 0.0
2015-May-18 02:34N 56°01' E 012°43'0 0.0
2015-May-18 01:34N 56°01' E 012°43'0 0.0
2015-May-18 00:33N 56°01' E 012°43'0 0.0
2015-May-17 23:33N 56°01' E 012°43'0 0.0
2015-May-17 22:33N 56°01' E 012°43'0 0.0
2015-May-17 21:33N 56°01' E 012°43'0 0.0
2015-May-17 20:33N 56°01' E 012°43'0 0.0
2015-May-17 19:33N 56°01' E 012°43'0 0.0
2015-May-17 18:30N 56°01' E 012°43'0 0.0
2015-May-17 17:33N 56°01' E 012°43'0 0.0
2015-May-17 16:33N 56°01' E 012°43'0 0.0
2015-May-17 15:33N 56°01' E 012°43'0 0.0
2015-May-17 14:33N 56°01' E 012°43'0 0.0
2015-May-17 13:33N 56°01' E 012°43'0 0.0
2015-May-17 12:33N 56°01' E 012°43'0 0.0
2015-May-17 11:33N 56°01' E 012°43'0 0.0
2015-May-17 10:33N 56°01' E 012°43'0 0.0
2015-May-17 09:33N 56°01' E 012°43'0 0.0
2015-May-17 08:33N 56°01' E 012°43'0 0.0
2015-May-17 07:33N 56°01' E 012°43'0 0.0
2015-May-17 06:33N 56°01' E 012°43'0 0.0
2015-May-17 05:33N 56°01' E 012°43'0 0.0
2015-May-17 04:33N 56°01' E 012°43'0 0.0
2015-May-17 03:33N 56°01' E 012°43'0 0.0
2015-May-17 02:33N 56°01' E 012°43'0 0.0
2015-May-17 01:33N 56°01' E 012°43'0 0.0
2015-May-17 00:30N 56°01' E 012°43'0 0.0
2015-May-16 23:33N 56°00' E 012°43'0 0.0
2015-May-16 22:33N 56°01' E 012°43'0 0.0
2015-May-16 21:33N 56°01' E 012°43'0 0.0
2015-May-16 20:33N 56°01' E 012°43'0 0.0
2015-May-16 19:33N 56°01' E 012°43'0 0.0
2015-May-16 18:33N 56°01' E 012°43'0 0.0
2015-May-16 17:30N 56°01' E 012°43'0 0.0
2015-May-16 16:30N 56°01' E 012°43'0 0.0
2015-May-16 15:30N 56°01' E 012°43'0 0.0
2015-May-16 14:32N 56°01' E 012°43'0 0.0
2015-May-16 13:32N 56°01' E 012°43'0 0.0
2015-May-16 12:32N 56°01' E 012°43'0 0.0
2015-May-16 11:33N 56°01' E 012°43'0 0.0
2015-May-16 10:33N 56°01' E 012°43'6 6.2
2015-May-16 09:33N 55°54' E 012°44'9 9.3
2015-May-16 08:33N 55°45' E 012°42'9 9.2
2015-May-16 07:33N 55°36' E 012°42'9 8.7
2015-May-16 06:33N 55°27' E 012°42'9 8.9
2015-May-16 05:33N 55°19' E 012°42'8 8.0
2015-May-16 04:33N 55°16' E 012°55'8 8.3
2015-May-16 03:33N 55°15' E 013°09'8 8.3
2015-May-16 02:33N 55°15' E 013°24'9 8.7
2015-May-16 01:32N 55°14' E 013°40'9 8.9
2015-May-16 00:33N 55°14' E 013°55'9 9.1
2015-May-15 23:33N 55°13' E 014°11'8 8.3
2015-May-15 22:33N 55°18' E 014°23'9 9.1
2015-May-15 21:33N 55°24' E 014°34'9 8.6
2015-May-15 20:33N 55°27' E 014°49'9 8.9
2015-May-15 19:33N 55°27' E 015°04'9 8.8
2015-May-15 18:33N 55°28' E 015°20'9 8.8
2015-May-15 17:33N 55°29' E 015°35'9 8.8
2015-May-15 16:33N 55°30' E 015°51'29 8.5
2015-May-15 13:06N 55°32' E 016°42'5 8.7
2015-May-15 12:33N 55°33' E 016°51'57 8.9
2015-May-15 06:05N 55°38' E 018°32'  
Track history (hours):
 
Tides and Currents Weather Stations Pressure Air Temp Water Temp Dewpoint Dewpoint Depression Visibility Wind Speed Wind Dir Waves Ship Positions

Vingaren

Last reported at 2015-May-23 15:33 UTC. Time now 2015-May-23 16:29 UTC.
Position N 55°38' E 013°01'.

Length 89 m; draft 3.9 m.

Type: Cargo ship. MMSI: 231844000.

Date/timePositionNaut miles runAvg speedWind from/ knotsBaromVisibWave heightAir tempDewpointWater temp
2015-May-23 15:33N 55°38' E 013°01'0 0.0
2015-May-23 14:33N 55°38' E 013°01'0 0.0
2015-May-23 13:33N 55°38' E 013°01'0 0.0
2015-May-23 12:33N 55°38' E 013°01'0 0.0
2015-May-23 11:33N 55°38' E 013°01'0 0.0
2015-May-23 10:29N 55°38' E 013°01'0 0.0
2015-May-23 09:32N 55°38' E 013°01'0 0.0
2015-May-23 08:26N 55°38' E 013°01'0 0.0
2015-May-23 07:32N 55°38' E 013°01'0 0.0
2015-May-23 06:32N 55°38' E 013°01'0 0.0
2015-May-23 05:32N 55°38' E 013°01'0 0.0
2015-May-23 04:32N 55°38' E 013°01'0 0.0
2015-May-23 03:32N 55°38' E 013°01'0 0.0
2015-May-23 02:32N 55°38' E 013°01'0 0.0
2015-May-23 01:32N 55°38' E 013°01'0 0.0
2015-May-23 00:32N 55°38' E 013°01'0 0.0
2015-May-22 23:32N 55°38' E 013°01'0 0.0
2015-May-22 22:32N 55°38' E 013°01'0 0.0
2015-May-22 21:32N 55°38' E 013°01'0 0.0
2015-May-22 20:32N 55°38' E 013°01'0 0.0
2015-May-22 19:32N 55°38' E 013°01'0 0.0
2015-May-22 18:32N 55°38' E 013°01'0 0.0
2015-May-22 17:32N 55°38' E 013°01'0 0.0
2015-May-22 16:32N 55°38' E 013°01'0 0.0
2015-May-22 15:32N 55°38' E 013°01'0 0.0
2015-May-22 14:32N 55°38' E 013°01'0 0.0
2015-May-22 13:32N 55°38' E 013°01'0 0.0
2015-May-22 12:32N 55°38' E 013°01'0 0.0
2015-May-22 11:32N 55°38' E 013°01'0 0.0
2015-May-22 10:32N 55°38' E 013°01'0 0.0
2015-May-22 09:32N 55°38' E 013°01'0 0.0
2015-May-22 08:32N 55°38' E 013°01'0 0.0
2015-May-22 07:32N 55°38' E 013°01'0 0.0
2015-May-22 06:32N 55°38' E 013°01'1 0.6
2015-May-22 05:33N 55°39' E 013°00'4 3.6
2015-May-22 04:31N 55°42' E 012°56'0 0.0
2015-May-22 03:31N 55°42' E 012°56'0 0.0
2015-May-22 02:31N 55°42' E 012°56'0 0.0
2015-May-22 01:31N 55°42' E 012°56'0 0.0
2015-May-22 00:31N 55°42' E 012°56'0 0.0
2015-May-21 23:31N 55°42' E 012°56'0 0.0
2015-May-21 22:31N 55°42' E 012°56'0 0.0
2015-May-21 21:31N 55°42' E 012°56'0 0.0
2015-May-21 20:31N 55°42' E 012°56'0 0.0
2015-May-21 19:31N 55°42' E 012°56'0 0.0
2015-May-21 18:31N 55°42' E 012°56'0 0.0
2015-May-21 17:31N 55°42' E 012°56'5 5.3
2015-May-21 16:33N 55°45' E 012°50'10 9.6
2015-May-21 15:33N 55°54' E 012°44'6 5.8
2015-May-21 14:30N 56°00' E 012°43'0 0.0
2015-May-21 13:33N 56°00' E 012°43'0 0.0
2015-May-21 12:33N 56°00' E 012°43'0 0.0
2015-May-21 11:33N 56°00' E 012°43'0 0.0
2015-May-21 10:33N 56°00' E 012°43'0 0.0
2015-May-21 09:33N 56°00' E 012°43'0 0.0
2015-May-21 08:33N 56°00' E 012°43'0 0.0
2015-May-21 07:30N 56°00' E 012°43'0 0.0
2015-May-21 06:33N 56°00' E 012°43'0 0.0
2015-May-21 05:33N 56°00' E 012°43'0 0.0
2015-May-21 04:33N 56°00' E 012°43'0 0.0
2015-May-21 03:33N 56°00' E 012°43'0 0.0
2015-May-21 02:33N 56°00' E 012°43'0 0.0
2015-May-21 01:33N 56°00' E 012°43'0 0.0
2015-May-21 00:33N 56°00' E 012°43'0 0.0
2015-May-20 23:33N 56°00' E 012°43'0 0.0
2015-May-20 22:33N 56°00' E 012°43'0 0.0
2015-May-20 21:33N 56°00' E 012°43'0 0.0
2015-May-20 20:33N 56°00' E 012°43'0 0.0
2015-May-20 19:32N 56°00' E 012°43'0 0.0
2015-May-20 18:32N 56°00' E 012°43'0 0.0
2015-May-20 17:32N 56°00' E 012°43'0 0.0
2015-May-20 16:32N 56°00' E 012°43'0 0.0
2015-May-20 15:29N 56°00' E 012°43'0 0.0
2015-May-20 14:32N 56°00' E 012°43'0 0.0
2015-May-20 13:32N 56°00' E 012°43'0 0.0
2015-May-20 12:32N 56°00' E 012°43'0 0.0
2015-May-20 11:29N 56°00' E 012°43'0 0.0
2015-May-20 10:32N 56°00' E 012°43'0 0.0
2015-May-20 09:32N 56°00' E 012°43'0 0.0
2015-May-20 08:32N 56°00' E 012°43'0 0.0
2015-May-20 07:29N 56°01' E 012°43'0 0.0
2015-May-20 06:32N 56°01' E 012°43'0 0.0
2015-May-20 05:32N 56°01' E 012°43'0 0.0
2015-May-20 04:32N 56°01' E 012°43'0 0.0
2015-May-20 03:32N 56°01' E 012°43'0 0.0
2015-May-20 02:32N 56°01' E 012°43'0 0.0
2015-May-20 01:29N 56°01' E 012°43'0 0.0
2015-May-20 00:32N 56°01' E 012°43'0 0.0
2015-May-19 23:32N 56°01' E 012°43'0 0.0
2015-May-19 22:32N 56°01' E 012°43'0 0.0
2015-May-19 21:32N 56°00' E 012°43'0 0.1
2015-May-19 20:32N 56°00' E 012°43'0 0.0
2015-May-19 19:32N 56°00' E 012°43'0 0.0
2015-May-19 18:32N 56°00' E 012°43'0 0.0
2015-May-19 17:32N 56°00' E 012°43'0 0.0
2015-May-19 16:32N 56°00' E 012°43'0 0.0
2015-May-19 15:32N 56°00' E 012°43'0 0.0
2015-May-19 14:32N 56°00' E 012°43'0 0.0
2015-May-19 13:32N 56°00' E 012°43'0 0.0
2015-May-19 12:32N 56°00' E 012°43'0 0.1
2015-May-19 11:32N 56°00' E 012°43'0 0.0
2015-May-19 10:31N 56°01' E 012°43'0 0.0
2015-May-19 09:31N 56°00' E 012°43'0 0.0
2015-May-19 08:31N 56°00' E 012°43'0 0.0
2015-May-19 07:31N 56°00' E 012°43'0 0.0
2015-May-19 06:31N 56°00' E 012°43'0 0.0
2015-May-19 05:31N 56°00' E 012°43'0 0.0
2015-May-19 04:31N 56°00' E 012°43'0 0.0
2015-May-19 03:31N 56°00' E 012°43'0 0.0
2015-May-19 02:28N 56°00' E 012°43'0 0.0
2015-May-19 01:31N 56°00' E 012°43'0 0.0
2015-May-19 00:31N 56°00' E 012°43'0 0.0
2015-May-18 23:25N 56°00' E 012°43'0 0.0
2015-May-18 22:31N 56°00' E 012°43'0 0.0
2015-May-18 21:28N 56°00' E 012°43'0 0.0
2015-May-18 20:31N 56°00' E 012°43'0 0.0
2015-May-18 19:31N 56°00' E 012°43'0 0.0
2015-May-18 18:28N 56°00' E 012°43'0 0.0
2015-May-18 17:31N 56°00' E 012°43'0 0.0
2015-May-18 16:28N 56°00' E 012°43'0 0.0
2015-May-18 15:31N 56°00' E 012°43'0 0.0
2015-May-18 14:25N 56°00' E 012°43'0 0.0
2015-May-18 13:28N 56°00' E 012°43'0 0.0
2015-May-18 12:31N 56°00' E 012°43'0 0.0
2015-May-18 11:31N 56°00' E 012°43'0 0.0
2015-May-18 10:25N 56°00' E 012°43'0 0.0
2015-May-18 09:31N 56°00' E 012°43'0 0.0
2015-May-18 08:31N 56°00' E 012°43'0 0.0
2015-May-18 07:31N 56°01' E 012°43'0 0.0
2015-May-18 06:31N 56°01' E 012°43'0 0.0
2015-May-18 05:31N 56°01' E 012°43'0 0.0
2015-May-18 04:31N 56°01' E 012°43'0 0.0
2015-May-18 03:31N 56°01' E 012°43'0 0.0
2015-May-18 02:34N 56°01' E 012°43'0 0.0
2015-May-18 01:34N 56°01' E 012°43'0 0.0
2015-May-18 00:33N 56°01' E 012°43'0 0.0
2015-May-17 23:33N 56°01' E 012°43'0 0.0
2015-May-17 22:33N 56°01' E 012°43'0 0.0
2015-May-17 21:33N 56°01' E 012°43'0 0.0
2015-May-17 20:33N 56°01' E 012°43'0 0.0
2015-May-17 19:33N 56°01' E 012°43'0 0.0
2015-May-17 18:30N 56°01' E 012°43'0 0.0
2015-May-17 17:33N 56°01' E 012°43'0 0.0
2015-May-17 16:33N 56°01' E 012°43'0 0.0
2015-May-17 15:33N 56°01' E 012°43'0 0.0
2015-May-17 14:33N 56°01' E 012°43'0 0.0
2015-May-17 13:33N 56°01' E 012°43'0 0.0
2015-May-17 12:33N 56°01' E 012°43'0 0.0
2015-May-17 11:33N 56°01' E 012°43'0 0.0
2015-May-17 10:33N 56°01' E 012°43'0 0.0
2015-May-17 09:33N 56°01' E 012°43'0 0.0
2015-May-17 08:33N 56°01' E 012°43'0 0.0
2015-May-17 07:33N 56°01' E 012°43'0 0.0
2015-May-17 06:33N 56°01' E 012°43'0 0.0
2015-May-17 05:33N 56°01' E 012°43'0 0.0
2015-May-17 04:33N 56°01' E 012°43'0 0.0
2015-May-17 03:33N 56°01' E 012°43'0 0.0
2015-May-17 02:33N 56°01' E 012°43'0 0.0
2015-May-17 01:33N 56°01' E 012°43'0 0.0
2015-May-17 00:30N 56°01' E 012°43'0 0.0
2015-May-16 23:33N 56°00' E 012°43'0 0.0
2015-May-16 22:33N 56°01' E 012°43'0 0.0
2015-May-16 21:33N 56°01' E 012°43'0 0.0
2015-May-16 20:33N 56°01' E 012°43'0 0.0
2015-May-16 19:33N 56°01' E 012°43'0 0.0
2015-May-16 18:33N 56°01' E 012°43'0 0.0
2015-May-16 17:30N 56°01' E 012°43'0 0.0
2015-May-16 16:30N 56°01' E 012°43'0 0.0
2015-May-16 15:30N 56°01' E 012°43'0 0.0
2015-May-16 14:32N 56°01' E 012°43'0 0.0
2015-May-16 13:32N 56°01' E 012°43'0 0.0
2015-May-16 12:32N 56°01' E 012°43'0 0.0
2015-May-16 11:33N 56°01' E 012°43'0 0.0
2015-May-16 10:33N 56°01' E 012°43'6 6.2
2015-May-16 09:33N 55°54' E 012°44'9 9.3
2015-May-16 08:33N 55°45' E 012°42'9 9.2
2015-May-16 07:33N 55°36' E 012°42'9 8.7
2015-May-16 06:33N 55°27' E 012°42'9 8.9
2015-May-16 05:33N 55°19' E 012°42'8 8.0
2015-May-16 04:33N 55°16' E 012°55'8 8.3
2015-May-16 03:33N 55°15' E 013°09'8 8.3
2015-May-16 02:33N 55°15' E 013°24'9 8.7
2015-May-16 01:32N 55°14' E 013°40'9 8.9
2015-May-16 00:33N 55°14' E 013°55'9 9.1
2015-May-15 23:33N 55°13' E 014°11'8 8.3
2015-May-15 22:33N 55°18' E 014°23'9 9.1
2015-May-15 21:33N 55°24' E 014°34'9 8.6
2015-May-15 20:33N 55°27' E 014°49'9 8.9
2015-May-15 19:33N 55°27' E 015°04'9 8.8
2015-May-15 18:33N 55°28' E 015°20'9 8.8
2015-May-15 17:33N 55°29' E 015°35'9 8.8
2015-May-15 16:33N 55°30' E 015°51'29 8.5
2015-May-15 13:06N 55°32' E 016°42'5 8.7
2015-May-15 12:33N 55°33' E 016°51'57 8.9
2015-May-15 06:05N 55°38' E 018°32'  

Dump ship's entire track history